NCAR-RAP Real-Time Weather Data

Output produced by METARs form (10 April 2020  07:25 UTC)
found at http://weather.rap.ucar.edu/surface/
 
KGTF 100653Z 21006KT 10SM CLR 04/M04 A2986 RMK AO2 SLP122 T00391039 401781067
KGTF 100553Z 22010KT 10SM CLR 02/M05 A2987 RMK AO2 SLP132 T00171050 10172 20011 58008
KGTF 100453Z 15007KT 10SM CLR 07/M06 A2988 RMK AO2 SLP133 T00671056
KGTF 100353Z 11006KT 10SM CLR 08/M06 A2989 RMK AO2 SLP142 T00831056
KGTF 100253Z 08007KT 10SM CLR 10/M06 A2989 RMK AO2 SLP145 T01001056 55004
KGTF 100153Z 07008KT 10SM CLR 12/M06 A2988 RMK AO2 SLP145 T01171056
KGTF 100053Z 07008KT 10SM CLR 15/M05 A2989 RMK AO2 SLP145 T01501050
KGTF 092353Z 01006KT 10SM CLR 17/M06 A2991 RMK AO2 SLP145 T01721056 10178 20094 56024
KGTF 092253Z 25004KT 10SM CLR 17/M06 A2992 RMK AO2 SLP147 T01671056
KGTF 092153Z 12004KT 10SM CLR 15/M07 A2995 RMK AO2 SLP160 T01501067
KGTF 092053Z 29005KT 10SM CLR 15/M07 A2999 RMK AO2 SLP169 T01501072 56026
KGTF 091953Z AUTO VRB06G19KT 10SM CLR 14/M05 A3001 RMK AO2 SLP181 T01391050
KGTF 091853Z VRB05KT 10SM CLR 11/M05 A3004 RMK AO2 SLP195 T01111050
KGTF 091753Z 11008KT 10SM CLR 09/M05 A3007 RMK AO2 SLP207 T00941050 10094 21067 56028
KGTF 091653Z 10008KT 10SM CLR 06/M06 A3010 RMK AO2 SLP220 T00611056
KGTF 091553Z VRB04KT 10SM CLR 03/M06 A3012 RMK AO2 SLP234 T00281061
KGTF 091453Z 17004KT 10SM CLR M01/M09 A3016 RMK AO2 SLP251 T10111089 58012
KGTF 091353Z 00000KT 10SM CLR M06/M09 A3019 RMK AO2 SLP266 T10561089
KGTF 091253Z 15003KT 10SM CLR M06/M11 A3019 RMK AO2 SLP269 T10611106
KGTF 091153Z 03003KT 10SM CLR M05/M11 A3020 RMK AO2 SLP266 T10501106 10000 21050 56008
KGTF 091053Z 07004KT 10SM CLR M04/M11 A3021 RMK AO2 SLP265 T10391106
KGTF 090953Z 08007KT 10SM CLR M03/M11 A3022 RMK AO2 SLP269 T10331106